INFORMACIÓN METAR y TAF
METAR FOR LEXJ
ADDS - METARS form results

(1024 UTC 19 July 2019)
Data provider http://aviationweather.gov/metar/data/
 
METAR text: LEXJ 191000Z 06004KT 350V130 CAVOK 25/16 Q1015
Conditions at: LEXJ (SANTANDER/PARAYA, ES) observed 1000 UTC 19 July 2019
Temperature: 25.0°C (77°F)
Dewpoint: 16.0°C (61°F) [RH = 57%]
Pressure (altimeter): 29.97 inches Hg (1015.0 mb)
Winds: from the ENE (60 degrees) at 5 MPH (4 knots; 2.1 m/s)
Visibility: 6 or more miles (10+ km)
Ceiling: ceiling and visibility are OK
Clouds: unknown
Weather: no significant weather observed at this time

METAR text: LEXJ 190930Z 07005KT 360V140 CAVOK 24/16 Q1015
Conditions at: LEXJ (SANTANDER/PARAYA, ES) observed 0930 UTC 19 July 2019
Temperature: 24.0°C (75°F)
Dewpoint: 16.0°C (61°F) [RH = 61%]
Pressure (altimeter): 29.97 inches Hg (1015.0 mb)
Winds: from the ENE (70 degrees) at 6 MPH (5 knots; 2.6 m/s)
Visibility: 6 or more miles (10+ km)
Ceiling: ceiling and visibility are OK
Clouds: unknown
Weather: no significant weather observed at this time

Forecast for: LEXJ (SANTANDER/PARAYA, ES)
Text: TAF LEXJ 190800Z 1909/2009 VRB04KT CAVOK TX25/1912Z TN17/2005Z
Forecast period: 0900 UTC 19 July 2019 to 0900 UTC 20 July 2019
Forecast type: FROM: standard forecast or significant change
Winds: variable direction winds at 5 MPH (4 knots; 2.1 m/s)
Visibility: 6 or more miles 10+ km)
Ceiling: unknown
Clouds: missing
Weather: no significant weather forecast for this period
Text: BECMG 1909/1912 04010KT
Forecast period: 0900 to 1800 UTC 19 July 2019
Forecast type: BECOMING: Conditions expected to become as follows by 1200 UTC 19 July 2019
Winds: from the NE (40 degrees) at 12 MPH (10 knots; 5.1 m/s)
Visibility: 6 or more miles 10+ km)
Ceiling: unknown
Clouds: missing
Weather: no significant weather forecast for this period
Text: BECMG 1918/1919 VRB05KT
Forecast period: 1800 UTC 19 July 2019 to 0900 UTC 20 July 2019
Forecast type: BECOMING: Conditions expected to become as follows by 1900 UTC 19 July 2019
Winds: variable direction winds at 6 MPH (5 knots; 2.6 m/s)
Visibility: 6 or more miles 10+ km)
Ceiling: unknown
Clouds: missing
Weather: no significant weather forecast for this period

 MAPA DE AEROPUERTO

 INFORMACIÓN DE PISTA
Pista 11 Longitud 7612 ft Ancho 148 ft
Elevación 11 ft Umbral desplazado 0 ft Rumbo de pista 110
Pista 29 Longitud 7612 ft Ancho 148 ft
Elevación 12 ft Umbral desplazado 0 ft Rumbo de pista 290

 FRECUANCIAS DEL AEROPUERTO
Tipo APP Nombre APP Frecuencia 118.375 MHZ
Tipo GND Nombre GND Frecuencia 121.7 MHZ
Tipo TWR Nombre TWR Frecuencia 118.1 MHZ

 RADIO AYUDAS DEL AEROPUERTO
Tipo NDB Nombre Santander Frecuencia 416 KHZ
Tipo VOR-DME Nombre Santander Frecuencia 115300 KHZ



              


PayPal

©2019 Oasis Virtual Airlines
Simulando desde el 2013

Oasis Líneas Aéreas Virtuales no está relacionada con ninguna compañía real.
Se trata de un entorno virtual de simulación aérea, sin ánimo de lucro.


Visitas:

VAM v2.6.2 [MOD.]